Time;durP1;ratioP1;P1;durP2;ratioP2;P2;SDS_P1;SDS_P2;PMS_P1;PMS_P2;Temp;Humidity;BMP_temperature;BMP_pressure;BME280_temperature;BME280_humidity;BME280_pressure;Samples;Min_cycle;Max_cycle;Signal;HPM_P1;HPM_P2
2021/08/22 00:00:26;;;;;;;10.65;6.40;;;;;;;;;;5109549;28;20034;-69
2021/08/22 00:04:24;;;;;;;9.38;6.15;;;;;;;;;;5111581;27;20513;-68
2021/08/22 00:06:50;;;;;;;11.20;5.55;;;;;;;;;;5111127;28;20016;-67
2021/08/22 00:09:17;;;;;;;8.65;5.78;;;;;;;;;;5110815;28;20073;-68
2021/08/22 00:11:43;;;;;;;9.95;5.90;;;;;;;;;;5111060;28;20492;-68
2021/08/22 00:14:09;;;;;;;10.02;6.22;;;;;;;;;;5110785;28;20095;-68
2021/08/22 00:16:35;;;;;;;9.68;6.88;;;;;;;;;;5111117;28;20398;-68
2021/08/22 00:19:02;;;;;;;10.13;5.82;;;;;;;;;;5110988;28;20044;-70
2021/08/22 00:21:28;;;;;;;11.70;6.10;;;;;;;;;;5109270;28;20496;-70
2021/08/22 00:25:21;;;;;;;10.65;6.03;;;;;;;;;;5111309;27;20392;-68
2021/08/22 00:27:47;;;;;;;7.88;4.97;;;;;;;;;;5111251;28;20028;-68
2021/08/22 00:30:13;;;;;;;7.25;4.93;;;;;;;;;;5110864;28;20484;-69
2021/08/22 00:32:48;;;;;;;8.57;4.80;;;;;;;;;;5070849;28;20395;-68
2021/08/22 00:35:14;;;;;;;7.90;5.32;;;;;;;;;;5070535;28;20028;-69
2021/08/22 00:38:57;;;;;;;11.43;5.93;;;;;;;;;;5070745;28;20468;-68
2021/08/22 00:41:24;;;;;;;8.05;5.05;;;;;;;;;;5069331;28;20445;-67
2021/08/22 00:45:16;;;;;;;16.73;6.93;;;;;;;;;;5111333;27;20469;-67
2021/08/22 00:47:43;;;;;;;9.75;5.53;;;;;;;;;;5111257;28;20079;-67
2021/08/22 00:50:59;;;;;;;11.20;6.60;;;;;;;;;;5110846;27;20912;-67
2021/08/22 00:56:52;;;;;;;9.75;5.82;;;;;;;;;;5110721;27;20528;-70
2021/08/22 01:00:28;;;;;;;12.05;5.88;;;;;;;;;;5111308;27;20393;-67
2021/08/22 01:03:04;;;;;;;12.32;5.90;;;;;;;;;;5111265;28;20024;-70
2021/08/22 01:05:47;;;;;;;8.50;5.95;;;;;;;;;;5110939;28;20031;-69
2021/08/22 01:11:18;;;;;;;11.55;5.68;;;;;;;;;;5131555;27;20311;-67
2021/08/22 01:15:22;;;;;;;8.75;5.43;;;;;;;;;;5111267;27;20393;-67
2021/08/22 01:18:30;;;;;;;8.13;5.13;;;;;;;;;;5111275;27;20451;-67
2021/08/22 01:23:56;;;;;;;11.95;6.07;;;;;;;;;;5070697;28;20403;-67
2021/08/22 01:28:09;;;;;;;13.80;8.32;;;;;;;;;;5090990;27;20417;-67
2021/08/22 01:30:49;;;;;;;14.45;9.18;;;;;;;;;;5090483;28;20033;-67
2021/08/22 01:33:16;;;;;;;14.77;7.75;;;;;;;;;;5090401;28;20028;-67
2021/08/22 01:39:01;;;;;;;15.07;9.45;;;;;;;;;;5110813;27;20423;-67
2021/08/22 01:41:28;;;;;;;13.02;7.57;;;;;;;;;;5127077;28;20028;-68
2021/08/22 01:43:54;;;;;;;9.48;6.35;;;;;;;;;;5111076;28;20031;-67
2021/08/22 01:46:52;;;;;;;10.30;6.95;;;;;;;;;;5110859;27;20517;-69
2021/08/22 01:51:03;;;;;;;10.82;6.65;;;;;;;;;;5111438;27;20409;-67
2021/08/22 01:53:56;;;;;;;14.10;6.93;;;;;;;;;;5111145;27;20381;-67
2021/08/22 01:56:23;;;;;;;9.68;5.93;;;;;;;;;;5111213;28;20368;-67
2021/08/22 01:58:49;;;;;;;8.00;5.50;;;;;;;;;;5111297;28;20022;-68
2021/08/22 02:01:15;;;;;;;11.52;5.40;;;;;;;;;;5110674;28;20020;-67
2021/08/22 02:04:59;;;;;;;9.10;5.60;;;;;;;;;;5070630;28;20395;-68
2021/08/22 02:08:31;;;;;;;8.40;5.18;;;;;;;;;;5070338;28;20899;-69
2021/08/22 02:11:07;;;;;;;9.00;5.93;;;;;;;;;;5069344;28;20033;-69
2021/08/22 02:13:36;;;;;;;10.43;6.30;;;;;;;;;;5069364;28;20392;-68
2021/08/22 02:16:03;;;;;;;9.57;5.50;;;;;;;;;;5070151;28;20025;-68
2021/08/22 02:20:07;;;;;;;11.48;6.93;;;;;;;;;;5099261;27;1603705;-68
2021/08/22 02:23:41;;;;;;;10.32;6.70;;;;;;;;;;5131661;27;20312;-67
2021/08/22 02:28:57;;;;;;;17.52;9.27;;;;;;;;;;5111160;27;20517;-70
2021/08/22 02:31:27;;;;;;;14.27;8.60;;;;;;;;;;5111310;28;20028;-69
2021/08/22 02:34:11;;;;;;;17.15;8.70;;;;;;;;;;5111418;27;20496;-67
2021/08/22 02:36:50;;;;;;;13.23;7.65;;;;;;;;;;5131415;27;20308;-67
2021/08/22 02:39:16;;;;;;;14.80;9.45;;;;;;;;;;5111254;28;20027;-67
2021/08/22 02:41:42;;;;;;;15.05;7.90;;;;;;;;;;5111149;28;20119;-68
2021/08/22 02:44:08;;;;;;;12.82;8.57;;;;;;;;;;5110593;28;20023;-67
2021/08/22 02:47:23;;;;;;;13.73;9.02;;;;;;;;;;5070908;28;20383;-68
2021/08/22 02:49:49;;;;;;;12.93;7.30;;;;;;;;;;5070256;28;20392;-67
2021/08/22 02:54:08;;;;;;;9.65;5.45;;;;;;;;;;5111267;27;20907;-69
2021/08/22 02:56:35;;;;;;;9.95;5.80;;;;;;;;;;5109543;28;20400;-68
2021/08/22 02:59:01;;;;;;;12.27;6.22;;;;;;;;;;5111359;28;20016;-68
2021/08/22 03:01:53;;;;;;;13.80;8.15;;;;;;;;;;5111438;27;20525;-71
2021/08/22 03:06:26;;;;;;;10.38;7.07;;;;;;;;;;5111355;27;20393;-68
2021/08/22 03:10:52;;;;;;;13.07;6.97;;;;;;;;;;5111233;27;20738;-67
2021/08/22 03:13:19;;;;;;;9.77;6.00;;;;;;;;;;5111068;28;20106;-67
2021/08/22 03:15:45;;;;;;;11.00;5.82;;;;;;;;;;5111172;28;20027;-67
2021/08/22 03:18:11;;;;;;;11.15;6.70;;;;;;;;;;5110772;28;20023;-67
2021/08/22 03:20:58;;;;;;;9.30;6.20;;;;;;;;;;5111211;27;20665;-69
2021/08/22 03:23:35;;;;;;;9.82;6.35;;;;;;;;;;5111475;27;20408;-68
2021/08/22 03:26:02;;;;;;;10.30;6.47;;;;;;;;;;5110817;28;20039;-68
2021/08/22 03:33:48;;;;;;;12.82;7.47;;;;;;;;;;5111700;27;20899;-69
2021/08/22 03:36:14;;;;;;;12.07;7.45;;;;;;;;;;5111350;28;20032;-67
2021/08/22 03:38:41;;;;;;;11.00;6.05;;;;;;;;;;5110658;28;20523;-67
2021/08/22 03:45:18;;;;;;;8.95;5.85;;;;;;;;;;5110908;27;20381;-67
2021/08/22 03:56:01;;;;;;;11.20;6.45;;;;;;;;;;5111426;27;20488;-67
2021/08/22 03:59:37;;;;;;;11.48;6.65;;;;;;;;;;5110674;27;20742;-67
2021/08/22 04:02:03;;;;;;;7.03;4.53;;;;;;;;;;5127080;28;20392;-67
2021/08/22 04:05:33;;;;;;;9.52;6.38;;;;;;;;;;5111525;27;20397;-68
2021/08/22 04:09:12;;;;;;;15.30;7.28;;;;;;;;;;5070868;28;20411;-67
2021/08/22 04:11:38;;;;;;;11.00;6.90;;;;;;;;;;5069472;28;20481;-67
2021/08/22 04:15:26;;;;;;;12.30;7.60;;;;;;;;;;5110927;27;20501;-67
2021/08/22 04:19:50;;;;;;;13.00;8.73;;;;;;;;;;5070678;28;20388;-67
2021/08/22 04:25:53;;;;;;;13.68;8.38;;;;;;;;;;5111243;27;20893;-69
2021/08/22 04:28:20;;;;;;;11.88;6.90;;;;;;;;;;5111046;28;20077;-67
2021/08/22 04:30:46;;;;;;;12.18;7.13;;;;;;;;;;5111224;28;20047;-67
2021/08/22 04:33:12;;;;;;;12.38;9.38;;;;;;;;;;5111238;28;20026;-67
2021/08/22 04:35:38;;;;;;;15.60;7.82;;;;;;;;;;5109320;28;20559;-67
2021/08/22 04:41:27;;;;;;;14.68;8.05;;;;;;;;;;5152006;27;20360;-69
2021/08/22 04:43:53;;;;;;;18.52;9.30;;;;;;;;;;5131847;28;20107;-69
2021/08/22 04:46:20;;;;;;;15.90;9.20;;;;;;;;;;5131681;28;20101;-68
2021/08/22 04:49:52;;;;;;;20.52;9.98;;;;;;;;;;5111266;27;20521;-69
2021/08/22 04:52:18;;;;;;;15.48;9.23;;;;;;;;;;5111483;28;20028;-68
2021/08/22 04:54:44;;;;;;;15.32;10.07;;;;;;;;;;5111111;28;20087;-68
2021/08/22 04:57:55;;;;;;;15.60;9.30;;;;;;;;;;5111692;27;20404;-67
2021/08/22 05:00:21;;;;;;;14.45;8.75;;;;;;;;;;5111216;28;20024;-69
2021/08/22 05:02:48;;;;;;;16.85;9.32;;;;;;;;;;5109478;28;20450;-68
2021/08/22 05:06:46;;;;;;;13.50;6.97;;;;;;;;;;5111262;27;20505;-69
2021/08/22 05:09:12;;;;;;;11.15;7.53;;;;;;;;;;5111293;28;20052;-68
2021/08/22 05:11:38;;;;;;;10.60;7.55;;;;;;;;;;5110767;28;20016;-68
2021/08/22 05:14:04;;;;;;;11.85;6.90;;;;;;;;;;5111408;28;20023;-68
2021/08/22 05:16:44;;;;;;;9.80;7.50;;;;;;;;;;5070381;28;20741;-69
2021/08/22 05:19:10;;;;;;;11.95;6.88;;;;;;;;;;5070786;28;20500;-67
2021/08/22 05:21:36;;;;;;;12.55;6.80;;;;;;;;;;5070685;28;20021;-68
2021/08/22 05:25:14;;;;;;;12.27;7.95;;;;;;;;;;5110950;27;20874;-69
2021/08/22 05:27:41;;;;;;;18.30;9.25;;;;;;;;;;5111215;28;20476;-69
2021/08/22 05:30:07;;;;;;;13.93;8.07;;;;;;;;;;5109892;28;20031;-67
2021/08/22 05:32:33;;;;;;;14.32;8.63;;;;;;;;;;5110806;28;20495;-68
2021/08/22 05:34:59;;;;;;;18.80;10.98;;;;;;;;;;5111159;28;20031;-68
2021/08/22 05:37:25;;;;;;;15.95;11.50;;;;;;;;;;5111263;28;20031;-69
2021/08/22 05:39:52;;;;;;;13.60;9.50;;;;;;;;;;5109260;28;20046;-70
2021/08/22 05:44:16;;;;;;;20.48;11.55;;;;;;;;;;5111416;27;20306;-68
2021/08/22 05:47:53;;;;;;;18.02;11.68;;;;;;;;;;5111239;27;20381;-70
2021/08/22 05:53:40;;;;;;;17.13;10.60;;;;;;;;;;5131187;27;20305;-70
2021/08/22 05:56:06;;;;;;;17.60;12.00;;;;;;;;;;5111233;28;20028;-69
2021/08/22 06:00:08;;;;;;;19.75;12.57;;;;;;;;;;5110972;27;20418;-69
2021/08/22 06:03:07;;;;;;;15.07;9.95;;;;;;;;;;5111521;27;20381;-70
2021/08/22 06:07:23;;;;;;;14.68;10.40;;;;;;;;;;5131236;27;20124;-70
2021/08/22 06:09:50;;;;;;;13.40;9.65;;;;;;;;;;5093016;28;20516;-68
2021/08/22 06:12:17;;;;;;;14.20;9.95;;;;;;;;;;5111291;28;20034;-69
2021/08/22 06:15:18;;;;;;;16.48;10.68;;;;;;;;;;5111320;27;20403;-70
2021/08/22 06:18:58;;;;;;;15.30;11.50;;;;;;;;;;5070645;28;20485;-69
2021/08/22 06:21:25;;;;;;;16.08;10.15;;;;;;;;;;5070286;28;20071;-69
2021/08/22 06:23:53;;;;;;;15.88;11.40;;;;;;;;;;5070681;28;20476;-68
2021/08/22 06:26:19;;;;;;;13.43;9.50;;;;;;;;;;5069277;28;20060;-69
2021/08/22 06:31:55;;;;;;;14.38;10.98;;;;;;;;;;5111305;27;20775;-69
2021/08/22 06:34:21;;;;;;;15.00;11.90;;;;;;;;;;5110945;28;20104;-70
2021/08/22 06:36:48;;;;;;;16.70;11.48;;;;;;;;;;5111155;28;20495;-68
2021/08/22 06:39:14;;;;;;;14.77;10.63;;;;;;;;;;5111192;28;20495;-68
2021/08/22 06:41:41;;;;;;;12.60;8.90;;;;;;;;;;5109468;28;20073;-69
2021/08/22 06:44:07;;;;;;;12.77;9.82;;;;;;;;;;5111095;28;20085;-68
2021/08/22 06:48:34;;;;;;;18.75;13.15;;;;;;;;;;5110936;27;20401;-69
2021/08/22 06:51:02;;;;;;;14.15;10.75;;;;;;;;;;5111267;28;20034;-68
2021/08/22 06:53:28;;;;;;;16.42;10.82;;;;;;;;;;5111159;28;20023;-69
2021/08/22 06:57:55;;;;;;;11.95;8.75;;;;;;;;;;5173243;27;20308;-68
2021/08/22 07:00:21;;;;;;;11.57;8.80;;;;;;;;;;5133840;27;20394;-69
2021/08/22 07:02:47;;;;;;;12.85;8.35;;;;;;;;;;5152005;27;20038;-69
2021/08/22 07:05:13;;;;;;;14.90;11.15;;;;;;;;;;5133824;27;20535;-69
2021/08/22 07:07:40;;;;;;;12.50;8.70;;;;;;;;;;5152174;27;20022;-68
2021/08/22 07:10:06;;;;;;;12.00;9.05;;;;;;;;;;5151861;27;20023;-68
2021/08/22 07:12:32;;;;;;;15.25;9.30;;;;;;;;;;5152213;27;20022;-69
2021/08/22 07:14:59;;;;;;;12.20;9.05;;;;;;;;;;5152332;27;20047;-69
2021/08/22 07:17:25;;;;;;;13.98;8.88;;;;;;;;;;5151537;27;20463;-68
2021/08/22 07:22:51;;;;;;;14.40;11.73;;;;;;;;;;5111415;27;20389;-68
2021/08/22 07:25:29;;;;;;;15.77;11.63;;;;;;;;;;5110804;27;20743;-69
2021/08/22 07:27:55;;;;;;;13.90;10.20;;;;;;;;;;5111429;28;20391;-68
2021/08/22 07:30:22;;;;;;;15.27;12.05;;;;;;;;;;5110827;28;20024;-68
2021/08/22 07:32:48;;;;;;;13.38;9.85;;;;;;;;;;5111200;28;20030;-69
2021/08/22 07:35:14;;;;;;;14.35;8.90;;;;;;;;;;5111023;28;20085;-70
2021/08/22 07:39:28;;;;;;;12.45;9.40;;;;;;;;;;5110772;27;20336;-69
2021/08/22 07:41:54;;;;;;;13.00;9.07;;;;;;;;;;5109913;28;20027;-69
2021/08/22 07:44:21;;;;;;;13.07;9.65;;;;;;;;;;5110825;28;20020;-69
2021/08/22 07:47:49;;;;;;;15.02;9.93;;;;;;;;;;5111540;27;20385;-68
2021/08/22 07:50:16;;;;;;;12.73;8.48;;;;;;;;;;5111337;28;20430;-68
2021/08/22 07:52:42;;;;;;;12.88;8.45;;;;;;;;;;5110590;28;20103;-68
2021/08/22 07:55:08;;;;;;;12.35;8.65;;;;;;;;;;5109866;28;20023;-68
2021/08/22 07:57:34;;;;;;;15.18;8.38;;;;;;;;;;5111024;28;20032;-68
2021/08/22 08:00:01;;;;;;;12.02;7.68;;;;;;;;;;5109369;28;20027;-69
2021/08/22 08:02:27;;;;;;;12.68;8.40;;;;;;;;;;5110951;28;20027;-69
2021/08/22 08:04:53;;;;;;;11.35;7.25;;;;;;;;;;5109946;28;20032;-69
2021/08/22 08:07:19;;;;;;;10.63;7.80;;;;;;;;;;5110411;28;20120;-68
2021/08/22 08:10:47;;;;;;;12.02;8.65;;;;;;;;;;5031473;28;20532;-68
2021/08/22 08:13:13;;;;;;;13.05;8.82;;;;;;;;;;5030364;28;20032;-68
2021/08/22 08:15:39;;;;;;;11.55;7.82;;;;;;;;;;5030721;28;20473;-68
2021/08/22 08:19:01;;;;;;;14.98;8.60;;;;;;;;;;5111299;27;20396;-69
2021/08/22 08:21:27;;;;;;;11.50;7.38;;;;;;;;;;5109416;28;20443;-70
2021/08/22 08:23:54;;;;;;;9.98;7.55;;;;;;;;;;5109402;28;20480;-68
2021/08/22 08:26:20;;;;;;;11.35;7.47;;;;;;;;;;5111074;28;20055;-69
2021/08/22 08:28:46;;;;;;;10.77;6.45;;;;;;;;;;5110611;28;20016;-69
2021/08/22 08:31:13;;;;;;;12.73;7.70;;;;;;;;;;5110984;28;20091;-69
2021/08/22 08:33:40;;;;;;;11.63;7.95;;;;;;;;;;5110490;28;20019;-70
2021/08/22 08:37:56;;;;;;;8.68;6.15;;;;;;;;;;5111402;27;20438;-69
2021/08/22 08:40:23;;;;;;;13.20;8.00;;;;;;;;;;5126975;28;20114;-68
2021/08/22 08:42:56;;;;;;;10.60;6.47;;;;;;;;;;5110828;28;20055;-69
2021/08/22 08:45:26;;;;;;;11.23;6.22;;;;;;;;;;5111211;28;20020;-69
2021/08/22 08:47:53;;;;;;;11.82;6.00;;;;;;;;;;5111066;28;20020;-68
2021/08/22 08:50:22;;;;;;;12.85;6.88;;;;;;;;;;5111136;28;20029;-69
2021/08/22 08:52:59;;;;;;;11.13;6.75;;;;;;;;;;5111047;28;20027;-68
2021/08/22 08:55:54;;;;;;;8.82;5.35;;;;;;;;;;5126336;28;20422;-69
2021/08/22 08:58:21;;;;;;;10.10;4.47;;;;;;;;;;5106165;28;20542;-69
2021/08/22 09:00:47;;;;;;;8.10;5.00;;;;;;;;;;5110803;28;20024;-69
2021/08/22 09:03:16;;;;;;;9.52;4.95;;;;;;;;;;5110384;28;20024;-69
2021/08/22 09:07:26;;;;;;;8.05;4.55;;;;;;;;;;5111415;27;20412;-68
2021/08/22 09:10:16;;;;;;;9.50;4.40;;;;;;;;;;5110973;28;20096;-69
2021/08/22 09:13:01;;;;;;;8.55;4.03;;;;;;;;;;5111173;28;20476;-68
2021/08/22 09:15:47;;;;;;;6.93;3.63;;;;;;;;;;5111149;28;20023;-69
2021/08/22 09:18:19;;;;;;;6.15;3.58;;;;;;;;;;5111092;28;20103;-69
2021/08/22 09:21:04;;;;;;;7.18;4.00;;;;;;;;;;5110891;28;20020;-69
2021/08/22 09:23:49;;;;;;;6.18;3.13;;;;;;;;;;5110514;28;20464;-69
2021/08/22 09:26:33;;;;;;;5.53;2.70;;;;;;;;;;5110791;28;20032;-69
2021/08/22 09:29:18;;;;;;;6.13;3.42;;;;;;;;;;5110945;28;20048;-69
2021/08/22 09:32:02;;;;;;;5.85;3.47;;;;;;;;;;5110454;28;20024;-69
2021/08/22 09:34:51;;;;;;;7.00;3.25;;;;;;;;;;5110707;28;20498;-69
2021/08/22 09:37:30;;;;;;;6.82;3.33;;;;;;;;;;5081587;28;20510;-69
2021/08/22 09:40:15;;;;;;;6.65;2.80;;;;;;;;;;5110658;28;20555;-69
2021/08/22 09:42:47;;;;;;;4.38;2.40;;;;;;;;;;5110621;28;20414;-69
2021/08/22 09:45:32;;;;;;;6.53;2.78;;;;;;;;;;5110206;28;20027;-69
2021/08/22 09:48:16;;;;;;;4.88;2.30;;;;;;;;;;5110410;28;20380;-69
2021/08/22 09:51:02;;;;;;;4.68;2.60;;;;;;;;;;5110427;28;20024;-69
2021/08/22 09:53:47;;;;;;;5.05;2.40;;;;;;;;;;5110451;28;20023;-69
2021/08/22 09:56:19;;;;;;;4.78;2.80;;;;;;;;;;5109071;28;20031;-69
2021/08/22 09:58:45;;;;;;;7.18;2.92;;;;;;;;;;5109978;28;20361;-69
2021/08/22 10:01:18;;;;;;;5.50;2.75;;;;;;;;;;5110289;28;20020;-69
2021/08/22 10:03:44;;;;;;;;;;;;;;;;;;5110526;28;20386;-69
2021/08/22 10:06:13;;;;;;;4.20;2.08;;;;;;;;;;5109646;28;20290;-69
2021/08/22 10:08:53;;;;;;;7.05;2.50;;;;;;;;;;5110179;28;20101;-69
2021/08/22 10:11:42;;;;;;;4.63;2.45;;;;;;;;;;5109976;28;20024;-69
2021/08/22 10:14:09;;;;;;;4.82;2.72;;;;;;;;;;5098187;28;20061;-69
2021/08/22 10:16:39;;;;;;;5.53;2.75;;;;;;;;;;5107549;28;20020;-69
2021/08/22 10:19:06;;;;;;;5.82;2.50;;;;;;;;;;5095878;28;20074;-69
2021/08/22 10:21:33;;;;;;;5.40;2.70;;;;;;;;;;5095106;28;20035;-69
2021/08/22 10:24:01;;;;;;;3.58;2.13;;;;;;;;;;5096225;28;20054;-69
2021/08/22 10:26:49;;;;;;;4.97;2.58;;;;;;;;;;5094272;28;20032;-69
2021/08/22 10:29:25;;;;;;;3.63;1.88;;;;;;;;;;5096301;28;20067;-69
2021/08/22 10:31:51;;;;;;;3.80;2.15;;;;;;;;;;5096010;28;20036;-69
2021/08/22 10:34:17;;;;;;;4.07;2.15;;;;;;;;;;5095776;28;20021;-70
2021/08/22 10:36:44;;;;;;;4.43;2.13;;;;;;;;;;5095901;28;20024;-70
2021/08/22 10:39:22;;;;;;;5.90;2.13;;;;;;;;;;5096045;28;20016;-69
2021/08/22 10:41:50;;;;;;;4.38;2.25;;;;;;;;;;5094200;28;20388;-69
2021/08/22 10:44:34;;;;;;;5.63;2.63;;;;;;;;;;5095839;28;20491;-69
2021/08/22 10:47:01;;;;;;;4.95;2.10;;;;;;;;;;5095870;28;20028;-69
2021/08/22 10:49:46;;;;;;;3.30;2.00;;;;;;;;;;5094356;28;20419;-69
2021/08/22 10:52:30;;;;;;;7.88;3.13;;;;;;;;;;5094362;28;20073;-69
2021/08/22 10:55:15;;;;;;;4.15;2.15;;;;;;;;;;5095307;28;20016;-69
2021/08/22 10:57:50;;;;;;;4.88;2.80;;;;;;;;;;5094316;28;20032;-69
2021/08/22 11:00:34;;;;;;;4.05;2.13;;;;;;;;;;5095489;28;20024;-69
2021/08/22 11:03:03;;;;;;;4.72;2.50;;;;;;;;;;5095054;28;20081;-69
2021/08/22 11:05:30;;;;;;;3.13;1.80;;;;;;;;;;5095226;28;20058;-69
2021/08/22 11:07:56;;;;;;;4.82;2.25;;;;;;;;;;5095351;28;20432;-69
2021/08/22 11:10:24;;;;;;;8.48;2.40;;;;;;;;;;5094969;28;20113;-69
2021/08/22 11:12:51;;;;;;;3.55;2.05;;;;;;;;;;5094040;28;20020;-69
2021/08/22 11:15:22;;;;;;;3.17;2.00;;;;;;;;;;5094942;28;20024;-69
2021/08/22 11:17:53;;;;;;;4.63;2.20;;;;;;;;;;5093889;28;20053;-70
2021/08/22 11:20:20;;;;;;;5.07;3.47;;;;;;;;;;5095250;28;20423;-71
2021/08/22 11:22:55;;;;;;;4.97;2.53;;;;;;;;;;5093494;28;20027;-70
2021/08/22 11:25:26;;;;;;;4.93;2.10;;;;;;;;;;5093633;28;20032;-70
2021/08/22 11:28:03;;;;;;;3.87;2.23;;;;;;;;;;5095101;28;20028;-69
2021/08/22 11:30:29;;;;;;;4.35;2.17;;;;;;;;;;5094108;28;20024;-68
2021/08/22 11:32:56;;;;;;;3.47;1.80;;;;;;;;;;5094979;28;20056;-69
2021/08/22 11:35:24;;;;;;;4.50;2.03;;;;;;;;;;5094797;28;20043;-70
2021/08/22 11:37:51;;;;;;;3.83;2.10;;;;;;;;;;5094534;28;20020;-68
2021/08/22 11:40:19;;;;;;;4.43;2.40;;;;;;;;;;5094803;28;20107;-70
2021/08/22 11:42:47;;;;;;;3.75;2.10;;;;;;;;;;5094804;28;20097;-70
2021/08/22 11:45:15;;;;;;;2.42;1.58;;;;;;;;;;5092948;28;20023;-69
2021/08/22 11:47:41;;;;;;;2.90;1.83;;;;;;;;;;5094786;28;20016;-69
2021/08/22 11:50:10;;;;;;;3.65;1.98;;;;;;;;;;5093443;28;20028;-69
2021/08/22 11:52:37;;;;;;;3.55;1.67;;;;;;;;;;5094214;28;20016;-70
2021/08/22 11:55:07;;;;;;;3.60;1.90;;;;;;;;;;5094541;28;20045;-69
2021/08/22 11:57:34;;;;;;;4.57;1.77;;;;;;;;;;5094295;28;20472;-71
2021/08/22 12:00:02;;;;;;;4.50;2.03;;;;;;;;;;5094693;28;20099;-70
2021/08/22 12:02:28;;;;;;;4.32;1.70;;;;;;;;;;5094286;28;20020;-69
2021/08/22 12:05:12;;;;;;;3.97;1.70;;;;;;;;;;5093783;28;20384;-69
2021/08/22 12:07:39;;;;;;;3.08;1.70;;;;;;;;;;5093054;28;20027;-70
2021/08/22 12:10:05;;;;;;;4.57;1.90;;;;;;;;;;5094389;28;20027;-69
2021/08/22 12:12:39;;;;;;;3.63;1.40;;;;;;;;;;5092448;28;20454;-69
2021/08/22 12:15:09;;;;;;;4.28;1.70;;;;;;;;;;5094449;28;20016;-69
2021/08/22 12:17:35;;;;;;;3.60;1.50;;;;;;;;;;5094393;28;20028;-69
2021/08/22 12:20:20;;;;;;;2.45;1.23;;;;;;;;;;5093615;28;20024;-69
2021/08/22 12:23:06;;;;;;;4.18;1.70;;;;;;;;;;5094193;28;20361;-69
2021/08/22 12:25:34;;;;;;;2.72;1.58;;;;;;;;;;5092281;28;20419;-68
2021/08/22 12:28:22;;;;;;;5.15;1.65;;;;;;;;;;5092616;28;20036;-68
2021/08/22 12:30:49;;;;;;;3.65;1.58;;;;;;;;;;5092619;28;20027;-68
2021/08/22 12:33:28;;;;;;;6.65;2.17;;;;;;;;;;5093380;28;20047;-70
2021/08/22 12:36:08;;;;;;;3.25;1.48;;;;;;;;;;5092418;28;20020;-70
2021/08/22 12:38:36;;;;;;;1.63;1.10;;;;;;;;;;5093800;28;20111;-69
2021/08/22 12:41:20;;;;;;;2.47;1.40;;;;;;;;;;5091955;28;20031;-69
2021/08/22 12:43:47;;;;;;;3.22;1.52;;;;;;;;;;5093620;28;20028;-70
2021/08/22 12:46:14;;;;;;;3.97;1.58;;;;;;;;;;5093640;28;20115;-68
2021/08/22 12:48:40;;;;;;;3.20;1.33;;;;;;;;;;5093353;28;20024;-69
2021/08/22 12:51:10;;;;;;;2.95;1.35;;;;;;;;;;5093562;28;20023;-68
2021/08/22 12:53:36;;;;;;;2.65;1.40;;;;;;;;;;5092146;28;20036;-70
2021/08/22 12:56:03;;;;;;;3.10;1.50;;;;;;;;;;5093781;28;20368;-70
2021/08/22 12:58:29;;;;;;;4.70;1.55;;;;;;;;;;5093511;28;20433;-69
2021/08/22 13:00:57;;;;;;;2.55;1.45;;;;;;;;;;5093064;28;20047;-69
2021/08/22 13:03:23;;;;;;;2.10;1.48;;;;;;;;;;5093340;28;20032;-70
2021/08/22 13:05:49;;;;;;;1.98;1.40;;;;;;;;;;5093275;28;20118;-70
2021/08/22 13:08:16;;;;;;;5.55;1.60;;;;;;;;;;5092986;28;20024;-70
2021/08/22 13:10:42;;;;;;;4.32;2.08;;;;;;;;;;5093410;28;20087;-70
2021/08/22 13:13:08;;;;;;;5.50;2.58;;;;;;;;;;5093268;28;20042;-70
2021/08/22 13:15:34;;;;;;;3.78;2.17;;;;;;;;;;5092960;28;20024;-70
2021/08/22 13:18:00;;;;;;;2.55;1.45;;;;;;;;;;5093347;28;20028;-70
2021/08/22 13:20:27;;;;;;;3.33;1.90;;;;;;;;;;5093285;28;20365;-69
2021/08/22 13:22:53;;;;;;;2.22;1.45;;;;;;;;;;5092837;28;20054;-69
2021/08/22 13:25:19;;;;;;;2.72;1.40;;;;;;;;;;5093086;28;20040;-69
2021/08/22 13:27:45;;;;;;;2.50;1.63;;;;;;;;;;5093227;28;20024;-68
2021/08/22 13:30:12;;;;;;;3.00;1.77;;;;;;;;;;5092780;28;20024;-69
2021/08/22 13:32:38;;;;;;;2.55;1.40;;;;;;;;;;5093147;28;20016;-69
2021/08/22 13:35:04;;;;;;;2.75;1.55;;;;;;;;;;5093208;28;20024;-69
2021/08/22 13:37:30;;;;;;;1.73;1.20;;;;;;;;;;5093014;28;20020;-70
2021/08/22 13:39:56;;;;;;;2.40;1.30;;;;;;;;;;5093172;28;20024;-68
2021/08/22 13:42:23;;;;;;;2.30;1.35;;;;;;;;;;5092995;28;20805;-69
2021/08/22 13:44:50;;;;;;;2.40;1.27;;;;;;;;;;5091484;28;20503;-68
2021/08/22 13:47:16;;;;;;;2.25;1.30;;;;;;;;;;5092992;28;20101;-69
2021/08/22 13:49:42;;;;;;;2.17;1.23;;;;;;;;;;5091735;28;20026;-69
2021/08/22 13:52:08;;;;;;;2.58;1.40;;;;;;;;;;5093332;28;20035;-69
2021/08/22 13:54:34;;;;;;;2.03;1.30;;;;;;;;;;5096876;28;20020;-69
2021/08/22 13:57:01;;;;;;;3.22;1.38;;;;;;;;;;5096640;28;20422;-69
2021/08/22 13:59:27;;;;;;;2.25;1.10;;;;;;;;;;5096944;28;20426;-69
2021/08/22 14:01:53;;;;;;;1.73;1.02;;;;;;;;;;5095368;28;20028;-69
2021/08/22 14:04:19;;;;;;;3.17;1.40;;;;;;;;;;5096544;28;20020;-69
2021/08/22 14:06:46;;;;;;;2.53;1.05;;;;;;;;;;5096542;28;20068;-70
2021/08/22 14:09:12;;;;;;;2.72;1.58;;;;;;;;;;5096637;28;20472;-70
2021/08/22 14:11:38;;;;;;;2.45;1.30;;;;;;;;;;5094870;28;20666;-69
2021/08/22 14:14:04;;;;;;;2.60;1.23;;;;;;;;;;5096457;28;20028;-70
2021/08/22 14:16:30;;;;;;;4.22;1.73;;;;;;;;;;5096490;28;20020;-70
2021/08/22 14:18:57;;;;;;;3.03;1.50;;;;;;;;;;5096014;28;20020;-70
2021/08/22 14:21:25;;;;;;;1.90;1.40;;;;;;;;;;5096276;28;20085;-70
2021/08/22 14:23:51;;;;;;;3.45;1.20;;;;;;;;;;5096356;28;20507;-68
2021/08/22 14:26:18;;;;;;;2.00;1.23;;;;;;;;;;5095778;28;20500;-70
2021/08/22 14:28:44;;;;;;;2.28;1.27;;;;;;;;;;5096156;28;20024;-69
2021/08/22 14:31:10;;;;;;;2.40;1.45;;;;;;;;;;5096112;28;20036;-68
2021/08/22 14:33:36;;;;;;;2.28;1.30;;;;;;;;;;5095674;28;20480;-68
2021/08/22 14:36:03;;;;;;;2.40;1.23;;;;;;;;;;5096162;28;20474;-69
2021/08/22 14:38:29;;;;;;;1.85;1.13;;;;;;;;;;5096048;28;20070;-69
2021/08/22 14:40:57;;;;;;;1.40;1.08;;;;;;;;;;5095533;28;20020;-69
2021/08/22 14:43:24;;;;;;;2.83;1.38;;;;;;;;;;5096076;28;20082;-69
2021/08/22 14:45:50;;;;;;;2.08;1.05;;;;;;;;;;5095831;28;20055;-69
2021/08/22 14:48:16;;;;;;;3.13;1.42;;;;;;;;;;5095480;28;20028;-69
2021/08/22 14:50:42;;;;;;;1.70;1.25;;;;;;;;;;5094477;28;20073;-69
2021/08/22 14:53:09;;;;;;;3.20;1.17;;;;;;;;;;5095773;28;20380;-69
2021/08/22 14:55:35;;;;;;;5.43;1.50;;;;;;;;;;5094335;28;20032;-70
2021/08/22 14:58:01;;;;;;;2.42;1.23;;;;;;;;;;5095639;28;20016;-70
2021/08/22 15:00:27;;;;;;;2.85;1.45;;;;;;;;;;5093967;28;20111;-70
2021/08/22 15:02:54;;;;;;;3.90;1.27;;;;;;;;;;5095514;28;20469;-70
2021/08/22 15:05:20;;;;;;;2.30;1.00;;;;;;;;;;5095513;28;20559;-71
2021/08/22 15:07:46;;;;;;;1.60;1.13;;;;;;;;;;5095461;28;20028;-70
2021/08/22 15:10:12;;;;;;;2.80;1.15;;;;;;;;;;5094068;28;20024;-70
2021/08/22 15:12:39;;;;;;;1.30;1.08;;;;;;;;;;5094115;28;20436;-70
2021/08/22 15:15:06;;;;;;;1.77;1.20;;;;;;;;;;5095148;28;20031;-69
2021/08/22 15:17:32;;;;;;;5.25;1.20;;;;;;;;;;5095364;28;20093;-68
2021/08/22 15:19:59;;;;;;;2.72;1.20;;;;;;;;;;5095195;28;20488;-68
2021/08/22 15:22:27;;;;;;;1.60;1.00;;;;;;;;;;5095016;28;20035;-68
2021/08/22 15:24:53;;;;;;;1.83;0.93;;;;;;;;;;5095162;28;20451;-68
2021/08/22 15:27:19;;;;;;;1.95;1.05;;;;;;;;;;5095080;28;20040;-69
2021/08/22 15:29:46;;;;;;;2.25;1.38;;;;;;;;;;5094635;28;20026;-68
2021/08/22 15:32:12;;;;;;;1.98;1.33;;;;;;;;;;5094972;28;20024;-69
2021/08/22 15:34:40;;;;;;;1.35;1.10;;;;;;;;;;5094998;28;20125;-69
2021/08/22 15:37:07;;;;;;;1.92;1.10;;;;;;;;;;5093377;28;20485;-69
2021/08/22 15:39:34;;;;;;;2.53;1.33;;;;;;;;;;5094773;28;20380;-70
2021/08/22 15:42:06;;;;;;;3.22;1.17;;;;;;;;;;5094890;28;20031;-69
2021/08/22 15:44:33;;;;;;;2.95;1.42;;;;;;;;;;5094371;28;20020;-70
2021/08/22 15:47:00;;;;;;;2.63;1.30;;;;;;;;;;5094560;28;20150;-68
2021/08/22 15:49:27;;;;;;;2.53;1.30;;;;;;;;;;5094682;28;20484;-69
2021/08/22 15:51:53;;;;;;;3.10;1.10;;;;;;;;;;5094165;28;20032;-68
2021/08/22 15:54:21;;;;;;;3.33;1.00;;;;;;;;;;5095242;28;20374;-69
2021/08/22 15:56:47;;;;;;;1.73;0.90;;;;;;;;;;5094201;28;20020;-69
2021/08/22 15:59:13;;;;;;;2.83;1.30;;;;;;;;;;5094401;28;20032;-69
2021/08/22 16:01:40;;;;;;;1.83;1.30;;;;;;;;;;5093205;28;20024;-69
2021/08/22 16:04:06;;;;;;;3.92;1.48;;;;;;;;;;5094028;28;20028;-69
2021/08/22 16:06:33;;;;;;;4.65;2.15;;;;;;;;;;5094252;28;20052;-69
2021/08/22 16:08:59;;;;;;;5.10;2.40;;;;;;;;;;5094328;28;20073;-69
2021/08/22 16:11:26;;;;;;;2.50;1.63;;;;;;;;;;5093900;28;20080;-69
2021/08/22 16:13:52;;;;;;;6.10;1.77;;;;;;;;;;5092774;28;20024;-69
2021/08/22 16:16:18;;;;;;;4.57;1.67;;;;;;;;;;5093552;28;20055;-69
2021/08/22 16:18:44;;;;;;;2.00;1.17;;;;;;;;;;5094036;28;20027;-69
2021/08/22 16:21:10;;;;;;;3.15;1.00;;;;;;;;;;5094053;28;20032;-69
2021/08/22 16:23:36;;;;;;;3.35;1.70;;;;;;;;;;5093993;28;20031;-68
2021/08/22 16:26:03;;;;;;;3.80;1.90;;;;;;;;;;5093470;28;20043;-68
2021/08/22 16:28:29;;;;;;;2.55;1.55;;;;;;;;;;5093963;28;20020;-68
2021/08/22 16:30:56;;;;;;;2.75;1.50;;;;;;;;;;5093945;28;20035;-69
2021/08/22 16:33:22;;;;;;;3.95;1.60;;;;;;;;;;5093531;28;20023;-69
2021/08/22 16:35:49;;;;;;;4.65;1.35;;;;;;;;;;5093735;28;20035;-69